Home > Products > Valid Products > MTR

000
SAUS45 KTWC 201052
MTRSAD
METAR KSAD 201051Z AUTO 10009KT 10SM CLR 13/11 A3000 RMK AO2 SLP131
T01330106 $





000
SAUS45 KTWC 200952
MTRSAD
METAR KSAD 200951Z AUTO 15011KT 10SM CLR 13/11 A3001 RMK AO2 SLP126
T01330106 $





000
SAUS45 KTWC 200952
MTRSAD
METAR KSAD 200951Z AUTO 15011KT 10SM CLR 13/11 A3001 RMK AO2 SLP126
T01330106 $





000
SAUS45 KTWC 200852
MTRSAD
METAR KSAD 200851Z AUTO 13007KT 10SM CLR 13/11 A3002 RMK AO2 SLP127
T01330106 58002 $





000
SAUS45 KTWC 200752
MTRSAD
METAR KSAD 200751Z AUTO 10006KT 10SM CLR 13/11 A3002 RMK AO2 SLP127
T01330111 $





000
SAUS45 KTWC 200752
MTRSAD
METAR KSAD 200751Z AUTO 10006KT 10SM CLR 13/11 A3002 RMK AO2 SLP127
T01330111 $





000
SAUS45 KTWC 200652
MTRSAD
METAR KSAD 200651Z AUTO 14008KT 10SM CLR 14/11 A3004 RMK AO2 SLP134
T01440111 402780139 $





000
SAUS45 KTWC 200552
MTRSAD
METAR KSAD 200551Z AUTO 14008KT 10SM CLR 15/11 A3002 RMK AO2 WSHFT
0438 SLP130 60000 T01500111 10178 20150 55000 $





000
SAUS45 KTWC 200500
MTRSAD
SPECI KSAD 200458Z AUTO VRB03KT 10SM FEW060 SCT090 SCT110 16/11
A3000 RMK AO2 WSHFT 0438 PRESRR T01610111 $





000
SAUS45 KTWC 200452
MTRSAD
METAR KSAD 200451Z AUTO 24011G24KT 10SM FEW060 SCT095 BKN110 16/12
A2998 RMK AO2 WSHFT 0422 RAB37E49 SLP116 P0000 T01610117 $





000
SAUS45 KTWC 200443
MTRSAD
SPECI KSAD 200442Z AUTO 23019G24KT 10SM -RA FEW060 BKN090 OVC110
17/10 A2998 RMK AO2 WSHFT 0422 RAB37 P0000 T01720100 $





000
SAUS45 KTWC 200431
MTRSAD
SPECI KSAD 200430Z AUTO 35010G22KT 10SM SCT100 BKN110 17/10 A2997
RMK AO2 WSHFT 0410 PRESFR T01720100 $





000
SAUS45 KTWC 200352
MTRSAD
METAR KSAD 200351Z AUTO 07007KT 10SM BKN110 16/12 A3004 RMK AO2
SLP137 T01610122 $





000
SAUS45 KTWC 200252
MTRSAD
METAR KSAD 200251Z AUTO 28011G17KT 10SM FEW100 16/12 A3002 RMK AO2
LTG DSNT E PRESRR SLP134 60000 T01560122 51030 $





000
SAUS45 KTWC 200153
MTRSAD
METAR KSAD 200151Z AUTO 30009KT 10SM FEW100 16/13 A2999 RMK AO2 LTG
DSNT S SLP122 T01610128 $





000
SAUS45 KTWC 200052
MTRSAD
METAR KSAD 200051Z AUTO 04012KT 10SM SCT095 OVC120 17/11 A2997 RMK
AO2 LTG DSNT NE AND E RAE42 SLP117 P0000 T01670111 $





000
SAUS45 KTWC 200025
MTRSAD
SPECI KSAD 200023Z AUTO 07017G24KT 10SM -RA FEW049 OVC090 17/12
A2996 RMK AO2 LTG DSNT NW-E P0000 T01670117 $





000
SAUS45 KTWC 192352
MTRSAD
METAR KSAD 192351Z AUTO 02011KT 10SM VCTS -RA BKN100 OVC110 18/11
A2993 RMK AO2 PK WND 21045/2302 WSHFT 2251 LTG DSNT ALQDS TSE49
SLP099 P0095 60113 T01780106 10278 20139 53017 $





000
SAUS45 KTWC 192352
MTRSAD
METAR KSAD 192351Z AUTO 02011KT 10SM VCTS -RA BKN100 OVC110 18/11
A2993 RMK AO2 PK WND 21045/2302 WSHFT 2251 LTG DSNT ALQDS TSE49
SLP099 P0095 60113 T01780106 10278 20139 53017 $





000
SAUS45 KTWC 192325
MTRSAD
SPECI KSAD 192323Z AUTO 02008KT 5SM -TSRA BR SCT024 BKN060 OVC085
14/13 A2995 RMK AO2 PK WND 21045/2302 WSHFT 2251 LTG DSNT ALQDS
P0095 T01440128 $





000
SAUS45 KTWC 192325
MTRSAD
SPECI KSAD 192323Z AUTO 02008KT 5SM -TSRA BR SCT024 BKN060 OVC085
14/13 A2995 RMK AO2 PK WND 21045/2302 WSHFT 2251 LTG DSNT ALQDS
P0095 T01440128 $





000
SAUS45 KTWC 192321
MTRSAD
SPECI KSAD 192320Z AUTO 06011G16KT 2SM TSRA BR BKN024 BKN037 OVC085
14/12 A2995 RMK AO2 PK WND 21045/2302 WSHFT 2251 LTG DSNT ALQDS
P0095 T01390122 $





000
SAUS45 KTWC 192321
MTRSAD
SPECI KSAD 192320Z AUTO 06011G16KT 2SM TSRA BR BKN024 BKN037 OVC085
14/12 A2995 RMK AO2 PK WND 21045/2302 WSHFT 2251 LTG DSNT ALQDS
P0095 T01390122 $





000
SAUS45 KTWC 192311
MTRSAD
SPECI KSAD 192310Z AUTO 18012G45KT 1/4SM +TSRA FG BKN020 BKN041
OVC060 14/12 A2998 RMK AO2 PK WND 21045/2302 WSHFT 2251 LTG DSNT
ALQDS P0064 T01390122 $





000
SAUS45 KTWC 192311
MTRSAD
SPECI KSAD 192310Z AUTO 18012G45KT 1/4SM +TSRA FG BKN020 BKN041
OVC060 14/12 A2998 RMK AO2 PK WND 21045/2302 WSHFT 2251 LTG DSNT
ALQDS P0064 T01390122 $





000
SAUS45 KTWC 192302
MTRSAD
SPECI KSAD 192301Z AUTO 22028G41KT 3/4SM +TSRA BR SCT040 OVC065
17/14 A2994 RMK AO2 PK WND 21041/2301 WSHFT 2245 LTG DSNT ALQDS
PRESRR P0012 T01670144 $





000
SAUS45 KTWC 192302
MTRSAD
SPECI KSAD 192301Z AUTO 22028G41KT 3/4SM +TSRA BR SCT040 OVC065
17/14 A2994 RMK AO2 PK WND 21041/2301 WSHFT 2245 LTG DSNT ALQDS
PRESRR P0012 T01670144 $





000
SAUS45 KTWC 192300
MTRSAD
SPECI KSAD 192258Z AUTO 25023KT 2SM +TSRA SCT040 OVC065 17/14 A2991
RMK AO2 PK WND 24027/2258 LTG DSNT ALQDS PRESRR P0006 T01720139 $





000
SAUS45 KTWC 192300
MTRSAD
SPECI KSAD 192258Z AUTO 25023KT 2SM +TSRA SCT040 OVC065 17/14 A2991
RMK AO2 PK WND 24027/2258 LTG DSNT ALQDS PRESRR P0006 T01720139 $





000
SAUS45 KTWC 192252
MTRSAD
METAR KSAD 192251Z AUTO 30018KT 5SM -RA FEW047 OVC065 18/14 A2989
RMK AO2 PK WND 06027/2205 RAB2158 TSB00E51 SLP086 P0018 T01780144 $





000
SAUS45 KTWC 192252
MTRSAD
METAR KSAD 192251Z AUTO 30018KT 5SM -RA FEW047 OVC065 18/14 A2989
RMK AO2 PK WND 06027/2205 RAB2158 TSB00E51 SLP086 P0018 T01780144 $





000
SAUS45 KTWC 192247
MTRSAD
SPECI KSAD 192246Z AUTO 31017KT 1 1/4SM TSRA FEW047 OVC065 18/14
A2988 RMK AO2 PK WND 06027/2205 LTG DSNT ALQDS RAB2158 TSB00 P0017 $





000
SAUS45 KTWC 192247
MTRSAD
SPECI KSAD 192246Z AUTO 31017KT 1 1/4SM TSRA FEW047 OVC065 18/14
A2988 RMK AO2 PK WND 06027/2205 LTG DSNT ALQDS RAB2158 TSB00 P0017 $





000
SAUS45 KTWC 192201
MTRSAD
SPECI KSAD 192200Z AUTO 06018G27KT 10SM -TSRA BKN070 23/11 A2987 RMK
AO2 PK WND 06027/2155 LTG DSNT ALQDS RAB2158 TSB00 P0000 T02330111 $





000
SAUS45 KTWC 192156 COR
MTRSAD
METAR KSAD 192151Z AUTO 06019G27KT 10SM BKN070 BKN110 25/09 A2987
RMK AO2 PK WND 06027/2142 LTG DSNT N AND NE SLP071 T02500094 $





000
SAUS45 KTWC 192153
MTRSAD
METAR KSAD 192151Z AUTO 06019G27KT 10SM BKN070 BKN110 25/09 A2987
RMK AO2 PK WND 06027/2142 LTG DSNT N AND NE SLP071 T02500094 $





000
SAUS45 KTWC 192053
MTRSAD
METAR KSAD 192051Z AUTO 15008KT 10SM FEW070 OVC095 27/09 A2989 RMK
AO2 LTG DSNT NE SLP074 T02670089 56028 $





000
SAUS45 KTWC 191952
MTRSAD
METAR KSAD 191951Z AUTO 13006KT 10SM FEW065 BKN095 27/09 A2992 RMK
AO2 SLP082 T02720094 $





000
SAUS45 KTWC 191852
MTRSAD
METAR KSAD 191851Z AUTO 15008G17KT 10SM OVC090 26/10 A2995 RMK AO2
SLP093 T02610100 $





000
SAUS45 KTWC 191752
MTRSAD
METAR KSAD 191751Z AUTO 13005KT 10SM FEW095 24/11 A2998 RMK AO2
SLP105 60001 T02390106 10239 20172 50000 $





000
SAUS45 KTWC 191652
MTRSAD
METAR KSAD 191651Z AUTO 10006KT 10SM SCT100 22/11 A2999 RMK AO2
RAB02E14 SLP110 P0001 T02220106 $





000
SAUS45 KTWC 191552
MTRSAD
METAR KSAD 191551Z AUTO 13008KT 10SM SCT110 21/11 A2999 RMK AO2
SLP112 T02060106 $





000
SAUS45 KTWC 191452
MTRSAD
METAR KSAD 191451Z AUTO 13006KT 10SM CLR 19/11 A2998 RMK AO2 LTG
DSNT E SLP107 T01940106 51012 $





000
SAUS45 KTWC 191352
MTRSAD
METAR KSAD 191351Z AUTO 12005KT 10SM CLR 18/10 A2997 RMK AO2 SLP106
T01780100 $





000
SAUS45 KTWC 191252
MTRSAD
METAR KSAD 191251Z AUTO 09006KT 10SM CLR 17/10 A2995 RMK AO2 SLP100
T01720100 $





000
SAUS45 KTWC 191152
MTRSAD
METAR KSAD 191151Z AUTO 15009KT 10SM FEW110 18/09 A2994 RMK AO2
SLP092 T01830094 10239 20183 53003 $





000
SAUS45 KTWC 191052
MTRSAD
METAR KSAD 191051Z AUTO 15007KT 10SM CLR 19/09 A2993 RMK AO2 SLP086
T01940094 $





000
SAUS45 KTWC 190952
MTRSAD
METAR KSAD 190951Z AUTO 18008KT 10SM CLR 21/09 A2993 RMK AO2 SLP084
T02060089 $





000
SAUS45 KTWC 190952
MTRSAD
METAR KSAD 190951Z AUTO 18008KT 10SM CLR 21/09 A2993 RMK AO2 SLP084
T02060089 $





000
SAUS45 KTWC 190852
MTRSAD
METAR KSAD 190851Z AUTO 16005KT 10SM CLR 21/08 A2993 RMK AO2 SLP085
T02060083 53006 $





000
SAUS45 KTWC 190752
MTRSAD
METAR KSAD 190751Z AUTO 15008KT 10SM BKN120 22/08 A2992 RMK AO2
SLP083 T02170083 $





000
SAUS45 KTWC 190652
MTRSAD
METAR KSAD 190651Z AUTO 10003KT 10SM SCT120 22/08 A2992 RMK AO2 LTG
DSNT NE SLP082 T02220078 403060089 $





000
SAUS45 KTWC 190552
MTRSAD
METAR KSAD 190551Z AUTO 10005KT 10SM FEW120 23/08 A2991 RMK AO2
SLP083 60000 T02330078 10294 20228 51013 $





000
SAUS45 KTWC 190452
MTRSAD
METAR KSAD 190451Z AUTO 08009KT 10SM FEW120 24/08 A2990 RMK AO2
SLP081 T02390083 $





000
SAUS45 KTWC 190452
MTRSAD
METAR KSAD 190451Z AUTO 08009KT 10SM FEW120 24/08 A2990 RMK AO2
SLP081 T02390083 $





000
SAUS45 KTWC 190353
MTRSAD
METAR KSAD 190351Z AUTO 09008KT 10SM FEW100 25/09 A2989 RMK AO2 LTG
DSNT N AND NE RAE0252 SLP077 P0000 T02500089 $





000
SAUS45 KTWC 190353
MTRSAD
METAR KSAD 190351Z AUTO 09008KT 10SM FEW100 25/09 A2989 RMK AO2 LTG
DSNT N AND NE RAE0252 SLP077 P0000 T02500089 $





000
SAUS45 KTWC 190321
MTRSAD
SPECI KSAD 190320Z AUTO 09007KT 10SM FEW095 24/09 A2988 RMK AO2 LTG
DSNT NE RAE0252 P0000 T02440094 $





000
SAUS45 KTWC 190321
MTRSAD
SPECI KSAD 190320Z AUTO 09007KT 10SM FEW095 24/09 A2988 RMK AO2 LTG
DSNT NE RAE0252 P0000 T02440094 $





000
SAUS45 KTWC 190306
MTRSAD
SPECI KSAD 190305Z AUTO 08007KT 10SM VCTS SCT100 26/08 A2988 RMK AO2
RAE0252 P0000 T02560083 $





000
SAUS45 KTWC 190252
MTRSAD
METAR KSAD 190251Z AUTO 09007KT 10SM -RA BKN100 26/08 A2987 RMK AO2
RAB43 SLP077 P0000 60000 T02560078 53008 $





000
SAUS45 KTWC 190152
MTRSAD
METAR KSAD 190151Z AUTO 07006KT 10SM CLR 25/05 A2986 RMK AO2 SLP078
T02500050 $





000
SAUS45 KTWC 190052
MTRSAD
METAR KSAD 190051Z AUTO 32003KT 10SM FEW110 27/04 A2985 RMK AO2
SLP072 T02670044 $





000
SAUS45 KTWC 182353
MTRSAD
METAR KSAD 182351Z AUTO 00000KT 10SM CLR 29/03 A2985 RMK AO2 SLP068
T02940033 10306 20244 56013 $





000
SAUS45 KTWC 182253
MTRSAD
METAR KSAD 182251Z AUTO 00000KT 10SM CLR 31/03 A2985 RMK AO2 SLP067
T03060028 $





000
SAUS45 KTWC 182153
MTRSAD
METAR KSAD 182151Z AUTO 16004KT 10SM CLR 30/02 A2988 RMK AO2 SLP074
T03000022 $





000
SAUS45 KTWC 182153
MTRSAD
METAR KSAD 182151Z AUTO 16004KT 10SM CLR 30/02 A2988 RMK AO2 SLP074
T03000022 $





000
SAUS45 KTWC 182053
MTRSAD
METAR KSAD 182051Z AUTO VRB06KT 10SM CLR 30/03 A2989 RMK AO2 SLP080
T03000028 56027 $





000
SAUS45 KTWC 181953
MTRSAD
METAR KSAD 181951Z AUTO VRB03KT 10SM CLR 28/03 A2992 RMK AO2 SLP091
T02830028 $





000
SAUS45 KTWC 181953
MTRSAD
METAR KSAD 181951Z AUTO VRB03KT 10SM CLR 28/03 A2992 RMK AO2 SLP091
T02830028 $





000
SAUS45 KTWC 181853
MTRSAD
METAR KSAD 181851Z AUTO 16005KT 10SM CLR 27/03 A2995 RMK AO2 SLP102
T02670033 $





000
SAUS45 KTWC 181753
MTRSAD
METAR KSAD 181751Z AUTO 16006KT 10SM CLR 24/04 A2998 RMK AO2 SLP114
T02440039 10244 20089 58008 $





000
SAUS45 KTWC 181653
MTRSAD
METAR KSAD 181651Z AUTO 15007KT 10SM CLR 22/04 A3000 RMK AO2 SLP124
T02170039 $





000
SAUS45 KTWC 181653
MTRSAD
METAR KSAD 181651Z AUTO 15007KT 10SM CLR 22/04 A3000 RMK AO2 SLP124
T02170039 $





000
SAUS45 KTWC 181552
MTRSAD
METAR KSAD 181551Z AUTO 16004KT 10SM CLR 18/04 A3002 RMK AO2 SLP131
T01830044 $





000
SAUS45 KTWC 181552
MTRSAD
METAR KSAD 181551Z AUTO 16004KT 10SM CLR 18/04 A3002 RMK AO2 SLP131
T01830044 $





000
SAUS45 KTWC 181452
MTRSAD
METAR KSAD 181451Z AUTO 13003KT 10SM CLR 14/05 A3000 RMK AO2 SLP129
T01440050 51012 $





000
SAUS45 KTWC 181452
MTRSAD
METAR KSAD 181451Z AUTO 13003KT 10SM CLR 14/05 A3000 RMK AO2 SLP129
T01440050 51012 $





000
SAUS45 KTWC 181353
MTRSAD
METAR KSAD 181351Z AUTO 08003KT 10SM CLR 10/05 A2999 RMK AO2 SLP129
T01000050 $





000
SAUS45 KTWC 181252
MTRSAD
METAR KSAD 181251Z AUTO 00000KT 10SM CLR 10/05 A2998 RMK AO2 SLP122
T01000050 $





000
SAUS45 KTWC 181153
MTRSAD
METAR KSAD 181151Z AUTO 23003KT 10SM CLR 10/06 A2996 RMK AO2 SLP113
T01000056 10150 20100 55003 $





000
SAUS45 KTWC 181053
MTRSAD
METAR KSAD 181051Z AUTO 00000KT 10SM CLR 11/05 A2995 RMK AO2 SLP109
T01110050 $





000
SAUS45 KTWC 181053
MTRSAD
METAR KSAD 181051Z AUTO 00000KT 10SM CLR 11/05 A2995 RMK AO2 SLP109
T01110050 $





000
SAUS45 KTWC 180953
MTRSAD
METAR KSAD 180951Z AUTO 14006KT 10SM CLR 13/05 A2996 RMK AO2 SLP106
T01280050 $





000
SAUS45 KTWC 180953
MTRSAD
METAR KSAD 180951Z AUTO 14006KT 10SM CLR 13/05 A2996 RMK AO2 SLP106
T01280050 $





000
SAUS45 KTWC 180852
MTRSAD
METAR KSAD 180851Z AUTO 00000KT 10SM CLR 12/06 A2997 RMK AO2 SLP115
T01170056 $





000
SAUS45 KTWC 180752
MTRSAD
METAR KSAD 180751Z AUTO 00000KT 10SM CLR 12/06 A2998 RMK AO2 SLP116
T01220056





000
SAUS45 KTWC 180752
MTRSAD
METAR KSAD 180751Z AUTO 00000KT 10SM CLR 12/06 A2998 RMK AO2 SLP116
T01220056





000
SAUS45 KTWC 180653
MTRSAD
METAR KSAD 180651Z AUTO 11003KT 10SM CLR 13/06 A2998 RMK AO2 SLP113
T01330056 402670133





000
SAUS45 KTWC 180553
MTRSAD
METAR KSAD 180551Z AUTO 00000KT 10SM CLR 14/06 A2999 RMK AO2 SLP117
T01440056 10256 20144 50005





000
SAUS45 KTWC 180452
MTRSAD
METAR KSAD 180451Z AUTO 00000KT 10SM CLR 17/05 A2999 RMK AO2 SLP118
T01670050





000
SAUS45 KTWC 180452
MTRSAD
METAR KSAD 180451Z AUTO 00000KT 10SM CLR 17/05 A2999 RMK AO2 SLP118
T01670050





000
SAUS45 KTWC 180352
MTRSAD
METAR KSAD 180351Z AUTO 04003KT 10SM FEW120 17/06 A2999 RMK AO2
SLP121 T01670061





000
SAUS45 KTWC 180253
MTRSAD
METAR KSAD 180251Z AUTO 07004KT 10SM FEW120 19/05 A2997 RMK AO2
SLP117 T01890050 53010





000
SAUS45 KTWC 180153
MTRSAD
METAR KSAD 180151Z AUTO 03007KT 10SM CLR 19/06 A2996 RMK AO2 SLP115
T01940056





000
SAUS45 KTWC 180052
MTRSAD
METAR KSAD 180051Z AUTO 33003KT 10SM CLR 23/04 A2995 RMK AO2 SLP107
T02280044





000
SAUS45 KTWC 172352
MTRSAD
METAR KSAD 172351Z AUTO 00000KT 10SM FEW095 24/04 A2994 RMK AO2
SLP101 60000 T02440039 10267 20228 56018





000
SAUS45 KTWC 172352
MTRSAD
METAR KSAD 172351Z AUTO 00000KT 10SM FEW095 24/04 A2994 RMK AO2
SLP101 60000 T02440039 10267 20228 56018





000
SAUS45 KTWC 172252
MTRSAD
METAR KSAD 172251Z AUTO 23006KT 10SM SCT110 25/04 A2995 RMK AO2
RAB2152E01 SLP104 P0000 T02500039





000
SAUS45 KTWC 172252
MTRSAD
METAR KSAD 172251Z AUTO 23006KT 10SM SCT110 25/04 A2995 RMK AO2
RAB2152E01 SLP104 P0000 T02500039





000
SAUS45 KTWC 172152
MTRSAD
METAR KSAD 172151Z AUTO 10SM BKN110 26/03 A2996 RMK AO2 RAB23E36
SLP105 P0000 T02610033





000
SAUS45 KTWC 172152
MTRSAD
METAR KSAD 172151Z AUTO 10SM BKN110 26/03 A2996 RMK AO2 RAB23E36
SLP105 P0000 T02610033





000
SAUS45 KTWC 172052
MTRSAD
METAR KSAD 172051Z AUTO 29008KT 10SM CLR 24/06 A3000 RMK AO2 SLP120
T02440056 58011





000
SAUS45 KTWC 172052
MTRSAD
METAR KSAD 172051Z AUTO 29008KT 10SM CLR 24/06 A3000 RMK AO2 SLP120
T02440056 58011





000
SAUS45 KTWC 171952
MTRSAD
METAR KSAD 171951Z AUTO 30011KT 10SM CLR 25/06 A3002 RMK AO2 SLP124
T02500056





000
SAUS45 KTWC 171852
MTRSAD
METAR KSAD 171851Z AUTO 31007KT 10SM CLR 26/06 A3003 RMK AO2 SLP126
T02610056





000
SAUS45 KTWC 171752
MTRSAD
METAR KSAD 171751Z AUTO VRB04KT 10SM CLR 26/06 A3004 RMK AO2 SLP126
T02560056 10256 20133 51002





000
SAUS45 KTWC 171652
MTRSAD
METAR KSAD 171651Z AUTO 14003KT 10SM CLR 23/06 A3003 RMK AO2 SLP125
T02330056





000
SAUS45 KTWC 171552
MTRSAD
METAR KSAD 171551Z AUTO 12004KT 10SM CLR 20/07 A3004 RMK AO2 SLP130
T02000067





000
SAUS45 KTWC 171552
MTRSAD
METAR KSAD 171551Z AUTO 12004KT 10SM CLR 20/07 A3004 RMK AO2 SLP130
T02000067





000
SAUS45 KTWC 171452
MTRSAD
METAR KSAD 171451Z AUTO 19004KT 10SM CLR 16/07 A3003 RMK AO2 SLP132
T01560072 53015





000
SAUS45 KTWC 171353
MTRSAD
METAR KSAD 171351Z AUTO 00000KT 10SM CLR 14/08 A3000 RMK AO2 SLP123
T01390078





000
SAUS45 KTWC 171252
MTRSAD
METAR KSAD 171251Z AUTO 11005KT 10SM CLR 13/07 A2998 RMK AO2 SLP115
T01330072





000
SAUS45 KTWC 171152
MTRSAD
METAR KSAD 171151Z AUTO 04004KT 10SM CLR 14/07 A2998 RMK AO2 SLP110
T01390067 10206 20133 53003





000
SAUS45 KTWC 171152
MTRSAD
METAR KSAD 171151Z AUTO 04004KT 10SM CLR 14/07 A2998 RMK AO2 SLP110
T01390067 10206 20133 53003





    US Dept of Commerce
    National Oceanic and Atmospheric Administration
    National Weather Service
    1325 East West Highway
    Silver Spring, MD 20910
    Page Author: NWS Internet Services Team
Disclaimer
Information Quality
Credits
Glossary
Privacy Policy
Freedom of Information Act (FOIA)
About Us
Career Opportunities